createdAt,value
2023-01-06T00:01:38.337Z,0.30
2023-01-06T00:04:06.677Z,0.20
2023-01-06T00:06:34.842Z,0.40
2023-01-06T00:09:05.378Z,0.00
2023-01-06T00:11:35.296Z,0.10
2023-01-06T00:14:03.835Z,0.30
2023-01-06T00:16:32.080Z,0.10
2023-01-06T00:19:01.497Z,0.15
2023-01-06T00:21:30.524Z,0.15
2023-01-06T00:23:58.679Z,0.08
2023-01-06T00:26:27.181Z,0.00
2023-01-06T00:28:57.879Z,0.00
2023-01-06T00:31:27.670Z,0.10
2023-01-06T00:33:57.306Z,0.00
2023-01-06T00:36:26.125Z,0.00
2023-01-06T00:38:54.327Z,0.00
2023-01-06T00:41:40.765Z,0.00
2023-01-06T00:44:10.400Z,0.00
2023-01-06T00:46:38.888Z,0.00
2023-01-06T00:49:08.031Z,0.00
2023-01-06T00:51:38.749Z,0.00
2023-01-06T00:54:07.855Z,0.00
2023-01-06T00:56:38.567Z,0.00
2023-01-06T00:59:11.273Z,0.20
2023-01-06T01:01:39.995Z,0.00
2023-01-06T01:04:08.484Z,0.00
2023-01-06T01:06:37.609Z,0.00
2023-01-06T01:09:07.278Z,0.00
2023-01-06T01:11:53.673Z,0.00
2023-01-06T01:14:23.395Z,0.00
2023-01-06T01:16:51.801Z,0.10
2023-01-06T01:19:21.019Z,0.08
2023-01-06T01:21:49.666Z,0.10
2023-01-06T01:24:19.247Z,0.00
2023-01-06T01:26:48.049Z,0.17
2023-01-06T01:29:17.709Z,0.00
2023-01-06T01:31:47.930Z,0.13
2023-01-06T01:34:18.194Z,0.00
2023-01-06T01:36:48.967Z,0.03
2023-01-06T01:39:19.058Z,0.05
2023-01-06T01:41:47.637Z,0.10
2023-01-06T01:44:53.200Z,0.10
2023-01-06T01:47:28.054Z,0.00
2023-01-06T01:50:00.921Z,0.08
2023-01-06T01:52:30.551Z,0.00
2023-01-06T01:54:58.924Z,0.10
2023-01-06T01:57:31.413Z,0.00
2023-01-06T02:00:00.679Z,0.10
2023-01-06T02:02:32.908Z,0.00
2023-01-06T02:05:02.988Z,0.00
2023-01-06T02:07:32.568Z,0.00
2023-01-06T02:10:07.232Z,0.22
2023-01-06T02:12:35.690Z,0.00
2023-01-06T02:15:03.988Z,0.00
2023-01-06T02:17:54.212Z,0.10
2023-01-06T02:20:59.739Z,0.00
2023-01-06T02:23:47.190Z,0.00
2023-01-06T02:26:44.120Z,0.10
2023-01-06T02:29:44.955Z,0.13
2023-01-06T02:32:29.310Z,0.10
2023-01-06T02:35:10.795Z,0.20
2023-01-06T02:37:56.457Z,0.13
2023-01-06T02:40:40.379Z,0.08
2023-01-06T02:43:16.939Z,0.00
2023-01-06T02:45:57.089Z,0.38
2023-01-06T02:48:35.830Z,0.15
2023-01-06T02:51:08.078Z,0.47
2023-01-06T02:53:44.794Z,0.00
2023-01-06T02:56:13.569Z,0.25
2023-01-06T02:58:50.106Z,0.10
2023-01-06T03:01:24.984Z,0.00
2023-01-06T03:03:56.738Z,0.15
2023-01-06T03:06:31.218Z,0.00
2023-01-06T03:09:02.780Z,0.10
2023-01-06T03:11:35.958Z,0.07
2023-01-06T03:14:07.678Z,0.25
2023-01-06T03:16:36.226Z,0.00
2023-01-06T03:19:06.007Z,0.13
2023-01-06T03:21:37.102Z,0.03
2023-01-06T03:24:08.989Z,0.30
2023-01-06T03:26:39.842Z,0.10
2023-01-06T03:29:11.043Z,0.08
2023-01-06T03:31:48.789Z,0.20
2023-01-06T03:34:28.038Z,0.20
2023-01-06T03:37:06.121Z,0.43
2023-01-06T03:39:49.458Z,0.10
2023-01-06T03:42:44.309Z,0.28
2023-01-06T03:45:27.536Z,0.10
2023-01-06T03:48:02.150Z,0.05
2023-01-06T03:50:39.489Z,0.43
2023-01-06T03:53:26.446Z,0.10
2023-01-06T03:56:00.862Z,0.17
2023-01-06T03:58:31.614Z,0.47
2023-01-06T04:01:00.286Z,0.20
2023-01-06T04:03:28.733Z,0.40
2023-01-06T04:05:58.976Z,0.38
2023-01-06T04:08:27.618Z,0.30
2023-01-06T04:10:56.663Z,0.03
2023-01-06T04:13:24.049Z,0.40
2023-01-06T04:15:54.499Z,0.20
2023-01-06T04:18:22.707Z,0.30
2023-01-06T04:20:51.073Z,0.20
2023-01-06T04:23:33.021Z,0.13
2023-01-06T04:26:05.844Z,0.17
2023-01-06T04:28:39.671Z,0.40
2023-01-06T04:31:09.251Z,0.43
2023-01-06T04:33:37.897Z,0.10
2023-01-06T04:36:10.158Z,0.50
2023-01-06T04:38:43.154Z,0.32
2023-01-06T04:41:11.341Z,0.47
2023-01-06T04:43:39.745Z,0.43
2023-01-06T04:46:08.128Z,0.30
2023-01-06T04:48:36.429Z,0.50
2023-01-06T04:51:06.788Z,0.30
2023-01-06T04:53:35.692Z,0.55
2023-01-06T04:56:06.688Z,0.13
2023-01-06T04:58:35.271Z,0.43
2023-01-06T05:01:03.974Z,0.80
2023-01-06T05:03:32.751Z,0.38
2023-01-06T05:06:03.261Z,0.13
2023-01-06T05:08:31.992Z,0.30
2023-01-06T05:11:01.411Z,0.50
2023-01-06T05:13:32.149Z,0.30
2023-01-06T05:16:00.438Z,0.82
2023-01-06T05:18:28.708Z,0.30
2023-01-06T05:20:56.941Z,0.45
2023-01-06T05:23:25.338Z,0.47
2023-01-06T05:25:54.062Z,0.40
2023-01-06T05:28:22.506Z,0.30
2023-01-06T05:30:52.181Z,0.57
2023-01-06T05:33:20.449Z,0.75
2023-01-06T05:35:48.647Z,0.30
2023-01-06T05:38:16.812Z,0.30
2023-01-06T05:40:45.039Z,0.55
2023-01-06T05:43:13.187Z,0.30
2023-01-06T05:45:41.450Z,0.88
2023-01-06T05:48:11.009Z,0.30
2023-01-06T05:50:39.246Z,0.93
2023-01-06T05:53:07.660Z,0.32
2023-01-06T05:55:35.968Z,0.25
2023-01-06T05:58:04.253Z,0.50
2023-01-06T06:00:32.494Z,0.47
2023-01-06T06:03:00.746Z,0.60
2023-01-06T06:05:30.353Z,0.52
2023-01-06T06:07:58.689Z,0.65
2023-01-06T06:10:26.907Z,0.70
2023-01-06T06:12:55.099Z,0.65
2023-01-06T06:15:23.337Z,0.30
2023-01-06T06:17:51.491Z,0.38
2023-01-06T06:20:19.664Z,0.50
2023-01-06T06:22:49.160Z,0.43
2023-01-06T06:25:17.538Z,0.35
2023-01-06T06:27:45.699Z,0.63
2023-01-06T06:30:14.358Z,0.28
2023-01-06T06:32:42.510Z,0.20
2023-01-06T06:35:11.026Z,0.35
2023-01-06T06:37:39.244Z,0.35
2023-01-06T06:40:09.858Z,0.40
2023-01-06T06:42:38.107Z,0.30
2023-01-06T06:45:07.189Z,0.43
2023-01-06T06:47:35.325Z,0.38
2023-01-06T06:50:03.624Z,0.38
2023-01-06T06:52:31.761Z,0.20
2023-01-06T06:54:59.899Z,0.17
2023-01-06T06:57:29.379Z,0.28
2023-01-06T06:59:57.703Z,0.22
2023-01-06T07:02:26.016Z,0.10
2023-01-06T07:04:54.587Z,0.28
2023-01-06T07:07:22.852Z,0.28
2023-01-06T07:09:51.046Z,0.25
2023-01-06T07:12:19.219Z,0.30
2023-01-06T07:14:48.748Z,0.03
2023-01-06T07:17:16.932Z,0.22
2023-01-06T07:19:45.108Z,0.22
2023-01-06T07:22:13.288Z,0.30
2023-01-06T07:24:41.509Z,0.20
2023-01-06T07:27:09.646Z,0.70
2023-01-06T07:29:37.827Z,0.80
2023-01-06T07:32:10.101Z,0.32
2023-01-06T07:34:38.519Z,0.47
2023-01-06T07:37:06.681Z,0.25
2023-01-06T07:39:35.497Z,0.25
2023-01-06T07:42:03.737Z,0.40
2023-01-06T07:44:31.984Z,0.60
2023-01-06T07:47:00.138Z,0.30
2023-01-06T07:49:30.010Z,0.50
2023-01-06T07:51:58.268Z,0.35
2023-01-06T07:54:26.597Z,0.30
2023-01-06T07:56:54.742Z,0.43
2023-01-06T07:59:22.989Z,0.98
2023-01-06T08:01:51.238Z,0.47
2023-01-06T08:04:19.690Z,0.30
2023-01-06T08:06:49.142Z,0.80
2023-01-06T08:09:17.383Z,0.28
2023-01-06T08:11:45.542Z,0.50
2023-01-06T08:14:14.077Z,0.60
2023-01-06T08:16:42.363Z,0.75
2023-01-06T08:19:10.538Z,0.38
2023-01-06T08:21:38.742Z,0.40
2023-01-06T08:24:09.009Z,0.10
2023-01-06T08:26:37.253Z,0.20
2023-01-06T08:29:05.401Z,0.35
2023-01-06T08:31:33.710Z,0.40
2023-01-06T08:34:02.082Z,0.10
2023-01-06T08:36:30.280Z,0.20
2023-01-06T08:38:58.925Z,0.38
2023-01-06T08:41:28.590Z,0.43
2023-01-06T08:43:56.849Z,0.25
2023-01-06T08:46:26.634Z,0.25
2023-01-06T08:48:56.787Z,0.25
2023-01-06T08:51:26.899Z,0.52
2023-01-06T08:53:55.626Z,0.20
2023-01-06T08:56:26.464Z,0.28
2023-01-06T08:58:58.471Z,0.93
2023-01-06T09:01:29.611Z,0.30
2023-01-06T09:03:59.634Z,0.40
2023-01-06T09:06:28.407Z,0.22
2023-01-06T09:08:57.111Z,0.40
2023-01-06T09:11:25.899Z,0.38
2023-01-06T09:13:55.657Z,0.40
2023-01-06T09:16:24.157Z,0.17
2023-01-06T09:18:53.462Z,0.30
2023-01-06T09:21:23.404Z,0.30
2023-01-06T09:23:51.712Z,0.40
2023-01-06T09:26:21.666Z,0.63
2023-01-06T09:28:50.142Z,0.40
2023-01-06T09:31:19.797Z,0.20
2023-01-06T09:33:48.548Z,0.30
2023-01-06T09:36:16.678Z,0.38
2023-01-06T09:38:44.894Z,0.13
2023-01-06T09:41:41.729Z,0.52
2023-01-06T09:44:14.344Z,0.13
2023-01-06T09:46:50.056Z,0.65
2023-01-06T09:49:26.481Z,0.32
2023-01-06T09:51:57.864Z,0.40
2023-01-06T09:54:30.480Z,0.32
2023-01-06T09:57:04.069Z,0.30
2023-01-06T09:59:35.278Z,0.10
2023-01-06T10:02:10.342Z,0.50
2023-01-06T10:04:38.670Z,0.57
2023-01-06T10:07:19.901Z,0.32
2023-01-06T10:10:02.826Z,0.30
2023-01-06T10:12:48.213Z,0.40
2023-01-06T10:15:25.953Z,0.52
2023-01-06T10:18:13.088Z,0.40
2023-01-06T10:20:55.664Z,0.60
2023-01-06T10:23:38.992Z,0.40
2023-01-06T10:26:13.823Z,0.85
2023-01-06T10:28:44.477Z,0.40
2023-01-06T10:31:16.496Z,0.40
2023-01-06T10:33:49.881Z,0.30
2023-01-06T10:36:22.179Z,0.17
2023-01-06T10:38:53.549Z,0.32
2023-01-06T10:41:26.732Z,0.35
2023-01-06T10:43:55.103Z,0.10
2023-01-06T10:46:23.492Z,0.10
2023-01-06T10:48:53.285Z,0.35
2023-01-06T10:51:35.964Z,0.10
2023-01-06T10:54:09.648Z,0.20
2023-01-06T10:56:40.145Z,0.50
2023-01-06T10:59:11.519Z,0.70
2023-01-06T11:01:50.418Z,0.38
2023-01-06T11:04:21.645Z,0.25
2023-01-06T11:06:52.998Z,0.70
2023-01-06T11:09:29.858Z,1.15
2023-01-06T11:12:01.421Z,0.40
2023-01-06T11:14:32.836Z,1.10
2023-01-06T11:17:03.616Z,0.82
2023-01-06T11:19:40.938Z,0.88
2023-01-06T11:22:33.971Z,0.65
2023-01-06T11:25:02.545Z,0.32
2023-01-06T11:27:30.832Z,0.10
2023-01-06T11:29:59.028Z,0.73
2023-01-06T11:32:29.009Z,0.00
2023-01-06T11:35:01.887Z,0.13
2023-01-06T11:37:33.913Z,0.10
2023-01-06T11:40:11.555Z,0.20
2023-01-06T11:45:31.819Z,0.22
2023-01-06T11:48:00.215Z,0.15
2023-01-06T11:50:30.043Z,0.20
2023-01-06T11:53:02.277Z,0.20
2023-01-06T11:55:30.876Z,0.00
2023-01-06T11:58:05.390Z,0.45
2023-01-06T12:00:42.877Z,0.30
2023-01-06T12:03:18.541Z,0.45
2023-01-06T12:05:56.064Z,0.20
2023-01-06T12:08:27.650Z,0.30
2023-01-06T12:10:59.773Z,0.80
2023-01-06T12:13:28.506Z,0.40
2023-01-06T12:16:02.707Z,0.52
2023-01-06T12:18:34.223Z,0.47
2023-01-06T12:21:05.783Z,0.30
2023-01-06T12:23:36.865Z,0.40
2023-01-06T12:26:11.231Z,0.57
2023-01-06T12:28:41.838Z,0.50
2023-01-06T12:31:16.054Z,0.43
2023-01-06T12:33:51.719Z,0.30
2023-01-06T12:36:31.185Z,0.68
2023-01-06T12:39:03.148Z,0.22
2023-01-06T12:41:37.304Z,0.30
2023-01-06T12:44:18.715Z,0.13
2023-01-06T12:46:56.877Z,0.28
2023-01-06T12:49:39.842Z,0.52
2023-01-06T12:52:16.434Z,0.10
2023-01-06T12:54:51.926Z,0.60
2023-01-06T12:57:35.327Z,0.40
2023-01-06T13:00:15.996Z,0.47
2023-01-06T13:03:18.999Z,0.45
2023-01-06T13:05:57.747Z,0.22
2023-01-06T13:08:41.457Z,0.70
2023-01-06T13:11:25.133Z,0.28
2023-01-06T13:14:03.621Z,0.60
2023-01-06T13:16:37.988Z,0.30
2023-01-06T13:19:20.667Z,0.68
2023-01-06T13:21:52.005Z,0.70
2023-01-06T13:24:41.483Z,0.32
2023-01-06T13:27:35.438Z,0.45
2023-01-06T13:30:25.250Z,0.60
2023-01-06T13:33:19.608Z,0.70
2023-01-06T13:36:06.001Z,0.50
2023-01-06T13:38:52.580Z,0.22
2023-01-06T13:41:26.748Z,0.60
2023-01-06T13:43:57.830Z,0.38
2023-01-06T13:46:30.036Z,0.38
2023-01-06T13:49:02.511Z,0.20
2023-01-06T13:51:34.790Z,0.40
2023-01-06T13:54:03.203Z,0.40
2023-01-06T13:56:34.267Z,0.32
2023-01-06T13:59:22.499Z,0.52
2023-01-06T14:01:52.301Z,0.77
2023-01-06T14:04:46.330Z,0.30
2023-01-06T14:07:16.496Z,0.38
2023-01-06T14:09:50.414Z,0.30
2023-01-06T14:12:24.045Z,0.13
2023-01-06T14:15:02.615Z,0.30
2023-01-06T14:17:38.916Z,0.20
2023-01-06T14:20:19.909Z,0.25
2023-01-06T14:23:00.976Z,0.25
2023-01-06T14:25:30.547Z,0.10
2023-01-06T14:28:36.049Z,0.30
2023-01-06T14:31:41.740Z,0.45
2023-01-06T14:34:14.265Z,0.57
2023-01-06T14:36:43.129Z,0.32
2023-01-06T14:39:21.304Z,0.28
2023-01-06T14:41:58.398Z,0.50
2023-01-06T14:44:35.257Z,0.28
2023-01-06T14:47:07.193Z,0.50
2023-01-06T14:49:45.604Z,0.32
2023-01-06T14:52:18.161Z,0.45
2023-01-06T14:54:48.618Z,0.22
2023-01-06T14:57:37.362Z,0.50
2023-01-06T15:00:13.915Z,0.30
2023-01-06T15:02:46.370Z,0.32
2023-01-06T15:05:25.065Z,0.45
2023-01-06T15:08:01.264Z,0.55
2023-01-06T15:10:33.119Z,0.10
2023-01-06T15:13:01.396Z,0.40
2023-01-06T15:15:31.892Z,0.20
2023-01-06T15:18:02.702Z,0.30
2023-01-06T15:20:34.888Z,0.85
2023-01-06T15:23:03.957Z,0.32
2023-01-06T15:25:35.843Z,0.40
2023-01-06T15:28:04.591Z,0.73
2023-01-06T15:30:36.746Z,0.25
2023-01-06T15:33:05.537Z,0.45
2023-01-06T15:35:35.344Z,0.55
2023-01-06T15:38:08.217Z,0.35
2023-01-06T15:40:36.545Z,0.27
2023-01-06T15:43:08.268Z,0.20
2023-01-06T15:45:37.503Z,0.40
2023-01-06T15:48:12.393Z,1.00
2023-01-06T15:50:42.030Z,0.50
2023-01-06T15:53:21.639Z,0.82
2023-01-06T15:55:52.224Z,0.50
2023-01-06T15:58:24.938Z,0.47
2023-01-06T16:01:00.411Z,0.60
2023-01-06T16:03:31.999Z,0.52
2023-01-06T16:06:11.801Z,0.45
2023-01-06T16:08:41.163Z,0.47
2023-01-06T16:11:12.762Z,9.00
2023-01-06T16:13:41.678Z,3.35
2023-01-06T16:16:27.037Z,0.95
2023-01-06T16:18:55.725Z,2.03
2023-01-06T16:21:28.518Z,8.93
2023-01-06T16:23:59.119Z,2.67
2023-01-06T16:26:30.562Z,17.05
2023-01-06T16:29:00.279Z,4.03
2023-01-06T16:31:31.622Z,4.55
2023-01-06T16:34:16.397Z,5.40
2023-01-06T16:36:46.107Z,3.88
2023-01-06T16:39:15.044Z,3.75
2023-01-06T16:42:31.187Z,5.43
2023-01-06T16:45:02.647Z,8.60
2023-01-06T16:47:31.118Z,3.33
2023-01-06T16:50:02.528Z,3.20
2023-01-06T16:52:32.109Z,0.80
2023-01-06T16:55:00.528Z,1.50
2023-01-06T16:57:28.799Z,1.08
2023-01-06T16:59:57.122Z,2.70
2023-01-06T17:02:25.488Z,1.10
2023-01-06T17:04:53.743Z,1.00
2023-01-06T17:07:24.122Z,1.23
2023-01-06T17:09:55.301Z,2.25
2023-01-06T17:12:37.480Z,1.02
2023-01-06T17:15:06.547Z,1.88
2023-01-06T17:17:36.129Z,2.40
2023-01-06T17:20:11.239Z,2.15
2023-01-06T17:22:40.124Z,1.92
2023-01-06T17:25:14.700Z,1.52
2023-01-06T17:27:45.562Z,1.30
2023-01-06T17:30:19.883Z,1.30
2023-01-06T17:32:49.172Z,1.23
2023-01-06T17:35:27.195Z,1.40
2023-01-06T17:37:58.863Z,1.52
2023-01-06T17:40:33.800Z,1.52
2023-01-06T17:43:04.306Z,2.30
2023-01-06T17:45:32.702Z,1.25
2023-01-06T17:48:01.255Z,1.95
2023-01-06T17:50:31.573Z,1.70
2023-01-06T17:53:31.283Z,1.20
2023-01-06T17:56:03.539Z,1.58
2023-01-06T17:58:33.749Z,1.58
2023-01-06T18:01:02.542Z,1.40
2023-01-06T18:03:34.146Z,1.90
2023-01-06T18:06:10.289Z,1.95
2023-01-06T18:08:39.422Z,1.90
2023-01-06T18:11:24.942Z,2.00
2023-01-06T18:13:53.869Z,3.00
2023-01-06T18:16:30.101Z,2.85
2023-01-06T18:19:15.378Z,3.42
2023-01-06T18:21:45.765Z,3.35
2023-01-06T18:24:20.054Z,3.45
2023-01-06T18:26:54.485Z,2.72
2023-01-06T18:29:25.757Z,3.17
2023-01-06T18:31:55.514Z,3.17
2023-01-06T18:34:29.912Z,3.08
2023-01-06T18:36:59.983Z,2.70
2023-01-06T18:39:30.737Z,3.13
2023-01-06T18:42:16.901Z,3.65
2023-01-06T18:44:45.214Z,3.75
2023-01-06T18:47:16.479Z,4.13
2023-01-06T18:49:44.877Z,2.58
2023-01-06T18:52:37.384Z,4.55
2023-01-06T18:55:17.546Z,3.50
2023-01-06T18:57:56.017Z,6.80
2023-01-06T19:00:38.112Z,3.92
2023-01-06T19:03:28.773Z,4.20
2023-01-06T19:06:21.249Z,2.50
2023-01-06T19:08:51.167Z,2.30
2023-01-06T19:11:22.743Z,2.45
2023-01-06T19:13:56.367Z,5.32
2023-01-06T19:16:30.488Z,5.55
2023-01-06T19:19:16.264Z,11.07
2023-01-06T19:21:44.978Z,22.20
2023-01-06T19:24:39.288Z,3.60
2023-01-06T19:29:54.962Z,2.13
2023-01-06T19:32:24.969Z,3.08
2023-01-06T19:34:53.247Z,1.95
2023-01-06T19:37:21.560Z,2.92
2023-01-06T19:39:57.390Z,2.20
2023-01-06T19:42:30.065Z,2.10
2023-01-06T19:45:03.401Z,2.90
2023-01-06T19:47:39.248Z,2.13
2023-01-06T19:50:19.738Z,1.77
2023-01-06T19:52:48.072Z,1.48
2023-01-06T19:55:21.060Z,2.30
2023-01-06T19:57:53.084Z,1.40
2023-01-06T20:00:26.949Z,1.60
2023-01-06T20:02:58.451Z,1.10
2023-01-06T20:05:27.944Z,1.70
2023-01-06T20:07:56.578Z,2.53
2023-01-06T20:10:25.259Z,2.47
2023-01-06T20:12:53.575Z,1.20
2023-01-06T20:15:21.788Z,2.88
2023-01-06T20:17:52.197Z,2.20
2023-01-06T20:20:20.443Z,3.65
2023-01-06T20:22:48.669Z,2.47
2023-01-06T20:25:17.100Z,1.83
2023-01-06T20:27:45.442Z,1.98
2023-01-06T20:30:13.865Z,2.28
2023-01-06T20:32:42.067Z,1.50
2023-01-06T20:35:13.824Z,1.40
2023-01-06T20:37:42.119Z,1.55
2023-01-06T20:40:10.928Z,0.90
2023-01-06T20:42:39.155Z,2.33
2023-01-06T20:45:08.228Z,0.88
2023-01-06T20:47:36.467Z,1.77
2023-01-06T20:50:09.130Z,1.30
2023-01-06T20:52:38.597Z,1.60
2023-01-06T20:55:07.433Z,1.20
2023-01-06T20:57:35.845Z,1.02
2023-01-06T21:00:04.752Z,0.90
2023-01-06T21:02:33.128Z,0.82
2023-01-06T21:05:01.423Z,0.55
2023-01-06T21:07:29.708Z,0.90
2023-01-06T21:09:59.226Z,1.02
2023-01-06T21:12:27.541Z,0.80
2023-01-06T21:14:55.853Z,1.23
2023-01-06T21:17:24.236Z,1.17
2023-01-06T21:19:52.453Z,1.15
2023-01-06T21:22:20.613Z,0.85
2023-01-06T21:24:49.012Z,0.88
2023-01-06T21:27:18.527Z,1.65
2023-01-06T21:29:46.866Z,0.98
2023-01-06T21:32:15.115Z,2.15
2023-01-06T21:34:43.314Z,1.10
2023-01-06T21:37:11.404Z,0.60
2023-01-06T21:39:39.769Z,0.75
2023-01-06T21:42:25.237Z,0.70
2023-01-06T21:44:54.887Z,0.65
2023-01-06T21:47:23.040Z,0.70
2023-01-06T21:49:52.059Z,0.77
2023-01-06T21:52:20.525Z,1.00
2023-01-06T21:54:49.479Z,1.65
2023-01-06T21:57:17.679Z,0.82
2023-01-06T21:59:45.951Z,0.65
2023-01-06T22:02:16.711Z,1.33
2023-01-06T22:04:45.083Z,1.15
2023-01-06T22:07:15.205Z,0.85
2023-01-06T22:09:45.746Z,0.40
2023-01-06T22:12:16.977Z,0.47
2023-01-06T22:14:45.647Z,0.82
2023-01-06T22:17:15.738Z,0.93
2023-01-06T22:19:46.050Z,0.57
2023-01-06T22:22:15.157Z,1.10
2023-01-06T22:24:43.454Z,0.93
2023-01-06T22:27:11.710Z,0.95
2023-01-06T22:29:39.880Z,0.50
2023-01-06T22:32:08.148Z,1.02
2023-01-06T22:34:37.741Z,0.80
2023-01-06T22:37:06.226Z,1.02
2023-01-06T22:39:34.483Z,0.82
2023-01-06T22:42:02.896Z,0.57
2023-01-06T22:44:31.132Z,1.08
2023-01-06T22:46:59.435Z,0.68
2023-01-06T22:49:27.696Z,1.08
2023-01-06T22:51:57.307Z,0.60
2023-01-06T22:54:25.558Z,1.70
2023-01-06T22:56:53.855Z,0.73
2023-01-06T22:59:22.239Z,1.13
2023-01-06T23:01:50.673Z,0.82
2023-01-06T23:04:19.008Z,0.82
2023-01-06T23:06:47.257Z,0.60
2023-01-06T23:09:17.771Z,3.72
2023-01-06T23:11:46.066Z,1.58
2023-01-06T23:14:14.849Z,3.05
2023-01-06T23:16:45.291Z,3.25
2023-01-06T23:19:16.329Z,1.23
2023-01-06T23:21:45.719Z,2.92
2023-01-06T23:24:14.203Z,1.75
2023-01-06T23:26:46.205Z,0.88
2023-01-06T23:29:15.459Z,1.67
2023-01-06T23:31:45.596Z,1.70
2023-01-06T23:34:16.331Z,1.85
2023-01-06T23:36:45.418Z,1.23
2023-01-06T23:39:16.972Z,2.00
2023-01-06T23:41:46.781Z,1.42
2023-01-06T23:44:16.895Z,1.35
2023-01-06T23:46:46.140Z,2.33
2023-01-06T23:49:15.792Z,2.38
2023-01-06T23:51:45.333Z,1.60
2023-01-06T23:54:14.304Z,1.50
2023-01-06T23:56:43.078Z,2.20
2023-01-06T23:59:14.040Z,2.75
